sensor_id;sensor_type;location;lat;lon;timestamp;P1;durP1;ratioP1;P2;durP2;ratioP2
46006;SDS011;31738;50.188;8.524;2022-09-27T00:01:02;2.95;;;2.33;;
46006;SDS011;31738;50.188;8.524;2022-09-27T00:03:30;5.70;;;2.33;;
46006;SDS011;31738;50.188;8.524;2022-09-27T00:06:10;10.15;;;2.53;;
46006;SDS011;31738;50.188;8.524;2022-09-27T00:08:38;3.38;;;2.45;;
46006;SDS011;31738;50.188;8.524;2022-09-27T00:11:05;2.97;;;2.38;;
46006;SDS011;31738;50.188;8.524;2022-09-27T00:13:33;3.97;;;2.75;;
46006;SDS011;31738;50.188;8.524;2022-09-27T00:16:02;6.32;;;2.88;;
46006;SDS011;31738;50.188;8.524;2022-09-27T00:18:31;8.68;;;3.10;;
46006;SDS011;31738;50.188;8.524;2022-09-27T00:21:10;3.63;;;2.30;;
46006;SDS011;31738;50.188;8.524;2022-09-27T00:23:37;3.53;;;2.50;;
46006;SDS011;31738;50.188;8.524;2022-09-27T00:26:04;5.57;;;2.83;;
46006;SDS011;31738;50.188;8.524;2022-09-27T00:28:31;3.90;;;2.47;;
46006;SDS011;31738;50.188;8.524;2022-09-27T00:30:59;4.45;;;2.33;;
46006;SDS011;31738;50.188;8.524;2022-09-27T00:33:27;3.35;;;2.63;;
46006;SDS011;31738;50.188;8.524;2022-09-27T00:35:53;3.90;;;2.75;;
46006;SDS011;31738;50.188;8.524;2022-09-27T00:38:19;6.60;;;2.75;;
46006;SDS011;31738;50.188;8.524;2022-09-27T00:40:47;4.82;;;2.90;;
46006;SDS011;31738;50.188;8.524;2022-09-27T00:43:17;3.45;;;2.53;;
46006;SDS011;31738;50.188;8.524;2022-09-27T00:45:54;4.95;;;2.67;;
46006;SDS011;31738;50.188;8.524;2022-09-27T00:48:31;4.32;;;2.78;;
46006;SDS011;31738;50.188;8.524;2022-09-27T00:51:07;4.22;;;2.22;;
46006;SDS011;31738;50.188;8.524;2022-09-27T00:53:38;4.80;;;2.40;;
46006;SDS011;31738;50.188;8.524;2022-09-27T00:56:19;5.47;;;2.85;;
46006;SDS011;31738;50.188;8.524;2022-09-27T00:58:53;4.38;;;2.65;;
46006;SDS011;31738;50.188;8.524;2022-09-27T01:01:26;5.50;;;2.40;;
46006;SDS011;31738;50.188;8.524;2022-09-27T01:04:07;5.13;;;2.45;;
46006;SDS011;31738;50.188;8.524;2022-09-27T01:06:34;5.85;;;2.15;;
46006;SDS011;31738;50.188;8.524;2022-09-27T01:09:02;5.68;;;2.50;;
46006;SDS011;31738;50.188;8.524;2022-09-27T01:11:41;3.85;;;2.38;;
46006;SDS011;31738;50.188;8.524;2022-09-27T01:14:23;3.13;;;1.85;;
46006;SDS011;31738;50.188;8.524;2022-09-27T01:25:28;4.07;;;2.33;;
46006;SDS011;31738;50.188;8.524;2022-09-27T01:31:18;8.82;;;2.50;;
46006;SDS011;31738;50.188;8.524;2022-09-27T01:36:36;5.78;;;2.30;;
46006;SDS011;31738;50.188;8.524;2022-09-27T01:42:26;3.78;;;2.53;;
46006;SDS011;31738;50.188;8.524;2022-09-27T01:45:14;8.15;;;2.42;;
46006;SDS011;31738;50.188;8.524;2022-09-27T01:47:58;4.10;;;2.20;;
46006;SDS011;31738;50.188;8.524;2022-09-27T01:51:06;4.53;;;2.22;;
46006;SDS011;31738;50.188;8.524;2022-09-27T01:53:37;5.45;;;2.30;;
46006;SDS011;31738;50.188;8.524;2022-09-27T01:56:29;3.35;;;2.20;;
46006;SDS011;31738;50.188;8.524;2022-09-27T01:59:22;5.75;;;2.42;;
46006;SDS011;31738;50.188;8.524;2022-09-27T02:02:24;4.43;;;2.17;;
46006;SDS011;31738;50.188;8.524;2022-09-27T02:05:16;6.90;;;2.40;;
46006;SDS011;31738;50.188;8.524;2022-09-27T02:07:50;4.30;;;2.10;;
46006;SDS011;31738;50.188;8.524;2022-09-27T02:10:25;6.60;;;2.00;;
46006;SDS011;31738;50.188;8.524;2022-09-27T02:13:03;8.43;;;2.00;;
46006;SDS011;31738;50.188;8.524;2022-09-27T02:15:51;8.90;;;2.28;;
46006;SDS011;31738;50.188;8.524;2022-09-27T02:21:24;6.35;;;1.92;;
46006;SDS011;31738;50.188;8.524;2022-09-27T02:23:57;8.50;;;2.15;;
46006;SDS011;31738;50.188;8.524;2022-09-27T02:29:33;4.30;;;2.50;;
46006;SDS011;31738;50.188;8.524;2022-09-27T02:32:08;3.53;;;2.00;;
46006;SDS011;31738;50.188;8.524;2022-09-27T02:34:40;3.03;;;2.08;;
46006;SDS011;31738;50.188;8.524;2022-09-27T02:37:08;3.97;;;1.80;;
46006;SDS011;31738;50.188;8.524;2022-09-27T02:39:34;5.10;;;2.15;;
46006;SDS011;31738;50.188;8.524;2022-09-27T02:42:07;3.50;;;2.00;;
46006;SDS011;31738;50.188;8.524;2022-09-27T02:44:38;5.35;;;2.08;;
46006;SDS011;31738;50.188;8.524;2022-09-27T02:47:27;2.85;;;1.98;;
46006;SDS011;31738;50.188;8.524;2022-09-27T02:50:28;2.97;;;1.80;;
46006;SDS011;31738;50.188;8.524;2022-09-27T02:53:27;4.72;;;1.67;;
46006;SDS011;31738;50.188;8.524;2022-09-27T03:03:15;4.05;;;1.10;;
46006;SDS011;31738;50.188;8.524;2022-09-27T03:06:07;5.30;;;1.10;;
46006;SDS011;31738;50.188;8.524;2022-09-27T03:08:38;3.33;;;1.10;;
46006;SDS011;31738;50.188;8.524;2022-09-27T03:11:07;2.40;;;0.88;;
46006;SDS011;31738;50.188;8.524;2022-09-27T03:13:33;0.98;;;0.65;;
46006;SDS011;31738;50.188;8.524;2022-09-27T03:16:04;2.90;;;0.65;;
46006;SDS011;31738;50.188;8.524;2022-09-27T03:18:50;0.77;;;0.63;;
46006;SDS011;31738;50.188;8.524;2022-09-27T03:21:48;1.48;;;0.90;;
46006;SDS011;31738;50.188;8.524;2022-09-27T03:24:14;1.00;;;0.65;;
46006;SDS011;31738;50.188;8.524;2022-09-27T03:26:43;7.18;;;0.88;;
46006;SDS011;31738;50.188;8.524;2022-09-27T03:29:09;1.02;;;0.70;;
46006;SDS011;31738;50.188;8.524;2022-09-27T03:31:36;3.55;;;0.80;;
46006;SDS011;31738;50.188;8.524;2022-09-27T03:34:29;1.70;;;1.00;;
46006;SDS011;31738;50.188;8.524;2022-09-27T03:36:55;1.95;;;0.73;;
46006;SDS011;31738;50.188;8.524;2022-09-27T03:39:23;0.95;;;0.70;;
46006;SDS011;31738;50.188;8.524;2022-09-27T03:41:49;1.58;;;0.90;;
46006;SDS011;31738;50.188;8.524;2022-09-27T03:44:14;1.00;;;0.80;;
46006;SDS011;31738;50.188;8.524;2022-09-27T03:46:42;1.38;;;0.88;;
46006;SDS011;31738;50.188;8.524;2022-09-27T03:49:08;2.53;;;0.80;;
46006;SDS011;31738;50.188;8.524;2022-09-27T03:51:33;1.65;;;0.82;;
46006;SDS011;31738;50.188;8.524;2022-09-27T03:53:59;1.17;;;0.57;;
46006;SDS011;31738;50.188;8.524;2022-09-27T03:56:25;1.05;;;0.70;;
46006;SDS011;31738;50.188;8.524;2022-09-27T03:58:50;1.40;;;0.88;;
46006;SDS011;31738;50.188;8.524;2022-09-27T04:01:17;3.65;;;0.70;;
46006;SDS011;31738;50.188;8.524;2022-09-27T04:03:49;3.20;;;1.08;;
46006;SDS011;31738;50.188;8.524;2022-09-27T04:06:30;1.25;;;0.93;;
46006;SDS011;31738;50.188;8.524;2022-09-27T04:08:56;1.85;;;0.70;;
46006;SDS011;31738;50.188;8.524;2022-09-27T04:11:26;1.02;;;0.70;;
46006;SDS011;31738;50.188;8.524;2022-09-27T04:13:55;0.98;;;0.90;;
46006;SDS011;31738;50.188;8.524;2022-09-27T04:16:26;2.13;;;1.02;;
46006;SDS011;31738;50.188;8.524;2022-09-27T04:19:17;0.90;;;0.68;;
46006;SDS011;31738;50.188;8.524;2022-09-27T04:21:53;4.20;;;0.70;;
46006;SDS011;31738;50.188;8.524;2022-09-27T04:24:19;1.70;;;0.90;;
46006;SDS011;31738;50.188;8.524;2022-09-27T04:27:05;3.58;;;1.00;;
46006;SDS011;31738;50.188;8.524;2022-09-27T04:29:31;1.05;;;0.65;;
46006;SDS011;31738;50.188;8.524;2022-09-27T04:32:01;1.15;;;0.88;;
46006;SDS011;31738;50.188;8.524;2022-09-27T04:34:53;1.65;;;0.70;;
46006;SDS011;31738;50.188;8.524;2022-09-27T04:37:37;1.77;;;0.88;;
46006;SDS011;31738;50.188;8.524;2022-09-27T04:40:03;2.08;;;1.00;;
46006;SDS011;31738;50.188;8.524;2022-09-27T04:42:30;1.48;;;0.90;;
46006;SDS011;31738;50.188;8.524;2022-09-27T04:44:58;1.35;;;0.77;;
46006;SDS011;31738;50.188;8.524;2022-09-27T04:47:29;2.33;;;0.93;;
46006;SDS011;31738;50.188;8.524;2022-09-27T04:49:58;3.92;;;0.70;;
46006;SDS011;31738;50.188;8.524;2022-09-27T04:52:26;2.65;;;1.00;;
46006;SDS011;31738;50.188;8.524;2022-09-27T04:54:52;0.68;;;0.60;;
46006;SDS011;31738;50.188;8.524;2022-09-27T04:57:21;2.40;;;0.88;;
46006;SDS011;31738;50.188;8.524;2022-09-27T04:59:47;1.40;;;0.73;;
46006;SDS011;31738;50.188;8.524;2022-09-27T05:02:16;1.92;;;0.85;;
46006;SDS011;31738;50.188;8.524;2022-09-27T05:05:05;1.42;;;0.80;;
46006;SDS011;31738;50.188;8.524;2022-09-27T05:07:36;1.75;;;0.90;;
46006;SDS011;31738;50.188;8.524;2022-09-27T05:10:06;1.60;;;0.77;;
46006;SDS011;31738;50.188;8.524;2022-09-27T05:12:44;0.95;;;0.65;;
46006;SDS011;31738;50.188;8.524;2022-09-27T05:15:17;0.70;;;0.68;;
46006;SDS011;31738;50.188;8.524;2022-09-27T05:18:03;3.38;;;0.70;;
46006;SDS011;31738;50.188;8.524;2022-09-27T05:21:12;1.00;;;0.82;;
46006;SDS011;31738;50.188;8.524;2022-09-27T05:23:45;1.33;;;0.70;;
46006;SDS011;31738;50.188;8.524;2022-09-27T05:26:26;4.63;;;0.80;;
46006;SDS011;31738;50.188;8.524;2022-09-27T05:28:54;5.10;;;1.05;;
46006;SDS011;31738;50.188;8.524;2022-09-27T05:31:19;1.40;;;0.70;;
46006;SDS011;31738;50.188;8.524;2022-09-27T05:36:37;1.65;;;0.70;;
46006;SDS011;31738;50.188;8.524;2022-09-27T05:39:11;2.45;;;0.85;;
46006;SDS011;31738;50.188;8.524;2022-09-27T05:41:41;1.25;;;0.65;;
46006;SDS011;31738;50.188;8.524;2022-09-27T05:44:10;3.75;;;0.70;;
46006;SDS011;31738;50.188;8.524;2022-09-27T05:49:21;1.83;;;0.75;;
46006;SDS011;31738;50.188;8.524;2022-09-27T05:51:46;1.85;;;0.60;;
46006;SDS011;31738;50.188;8.524;2022-09-27T05:54:12;1.45;;;0.52;;
46006;SDS011;31738;50.188;8.524;2022-09-27T05:56:38;1.52;;;0.90;;
46006;SDS011;31738;50.188;8.524;2022-09-27T05:59:20;3.35;;;0.60;;
46006;SDS011;31738;50.188;8.524;2022-09-27T06:02:18;1.15;;;0.68;;
46006;SDS011;31738;50.188;8.524;2022-09-27T06:04:58;1.33;;;0.70;;
46006;SDS011;31738;50.188;8.524;2022-09-27T06:08:07;1.67;;;0.80;;
46006;SDS011;31738;50.188;8.524;2022-09-27T06:10:40;1.10;;;1.00;;
46006;SDS011;31738;50.188;8.524;2022-09-27T06:13:12;2.55;;;0.90;;
46006;SDS011;31738;50.188;8.524;2022-09-27T06:15:57;1.33;;;0.98;;
46006;SDS011;31738;50.188;8.524;2022-09-27T06:18:27;1.83;;;0.98;;
46006;SDS011;31738;50.188;8.524;2022-09-27T06:20:59;2.35;;;1.05;;
46006;SDS011;31738;50.188;8.524;2022-09-27T06:23:28;1.45;;;1.35;;
46006;SDS011;31738;50.188;8.524;2022-09-27T06:26:04;3.13;;;1.23;;
46006;SDS011;31738;50.188;8.524;2022-09-27T06:28:55;2.13;;;1.20;;
46006;SDS011;31738;50.188;8.524;2022-09-27T06:31:24;1.58;;;1.15;;
46006;SDS011;31738;50.188;8.524;2022-09-27T06:34:11;2.28;;;1.33;;
46006;SDS011;31738;50.188;8.524;2022-09-27T06:36:39;3.75;;;1.30;;
46006;SDS011;31738;50.188;8.524;2022-09-27T06:39:07;1.60;;;1.30;;
46006;SDS011;31738;50.188;8.524;2022-09-27T06:42:03;3.60;;;1.42;;
46006;SDS011;31738;50.188;8.524;2022-09-27T06:44:48;3.83;;;1.30;;
46006;SDS011;31738;50.188;8.524;2022-09-27T06:47:34;1.40;;;1.17;;
46006;SDS011;31738;50.188;8.524;2022-09-27T06:50:36;4.65;;;1.20;;
46006;SDS011;31738;50.188;8.524;2022-09-27T06:53:15;1.90;;;1.02;;
46006;SDS011;31738;50.188;8.524;2022-09-27T06:55:41;1.40;;;1.10;;
46006;SDS011;31738;50.188;8.524;2022-09-27T06:58:08;2.50;;;1.30;;
46006;SDS011;31738;50.188;8.524;2022-09-27T07:01:19;2.90;;;1.13;;
46006;SDS011;31738;50.188;8.524;2022-09-27T07:04:05;4.38;;;1.10;;
46006;SDS011;31738;50.188;8.524;2022-09-27T07:06:52;1.20;;;1.00;;
46006;SDS011;31738;50.188;8.524;2022-09-27T07:09:23;2.33;;;1.20;;
46006;SDS011;31738;50.188;8.524;2022-09-27T07:11:48;3.83;;;1.10;;
46006;SDS011;31738;50.188;8.524;2022-09-27T07:14:22;1.30;;;1.00;;
46006;SDS011;31738;50.188;8.524;2022-09-27T07:16:53;5.45;;;1.00;;
46006;SDS011;31738;50.188;8.524;2022-09-27T07:19:19;3.88;;;0.90;;
46006;SDS011;31738;50.188;8.524;2022-09-27T07:21:46;1.27;;;1.00;;
46006;SDS011;31738;50.188;8.524;2022-09-27T07:24:18;2.35;;;0.85;;
46006;SDS011;31738;50.188;8.524;2022-09-27T07:26:53;0.80;;;0.80;;
46006;SDS011;31738;50.188;8.524;2022-09-27T07:29:33;2.35;;;1.05;;
46006;SDS011;31738;50.188;8.524;2022-09-27T07:32:10;4.65;;;1.00;;
46006;SDS011;31738;50.188;8.524;2022-09-27T07:34:42;4.13;;;0.80;;
46006;SDS011;31738;50.188;8.524;2022-09-27T07:37:09;2.55;;;0.90;;
46006;SDS011;31738;50.188;8.524;2022-09-27T07:39:38;1.13;;;0.93;;
46006;SDS011;31738;50.188;8.524;2022-09-27T07:42:28;4.65;;;1.02;;
46006;SDS011;31738;50.188;8.524;2022-09-27T07:45:14;1.80;;;0.70;;
46006;SDS011;31738;50.188;8.524;2022-09-27T07:48:09;2.10;;;0.70;;
46006;SDS011;31738;50.188;8.524;2022-09-27T07:51:17;3.03;;;0.75;;
46006;SDS011;31738;50.188;8.524;2022-09-27T07:54:04;2.00;;;1.00;;
46006;SDS011;31738;50.188;8.524;2022-09-27T07:57:09;1.25;;;0.68;;
46006;SDS011;31738;50.188;8.524;2022-09-27T08:00:09;2.00;;;0.90;;
46006;SDS011;31738;50.188;8.524;2022-09-27T08:02:42;1.02;;;0.90;;
46006;SDS011;31738;50.188;8.524;2022-09-27T08:05:32;3.20;;;1.08;;
46006;SDS011;31738;50.188;8.524;2022-09-27T08:08:05;2.03;;;0.90;;
46006;SDS011;31738;50.188;8.524;2022-09-27T08:10:35;3.00;;;0.85;;
46006;SDS011;31738;50.188;8.524;2022-09-27T08:15:33;3.35;;;0.70;;
46006;SDS011;31738;50.188;8.524;2022-09-27T08:18:04;3.28;;;0.80;;
46006;SDS011;31738;50.188;8.524;2022-09-27T08:23:46;5.10;;;0.80;;
46006;SDS011;31738;50.188;8.524;2022-09-27T08:26:30;1.27;;;0.53;;
46006;SDS011;31738;50.188;8.524;2022-09-27T08:29:03;4.22;;;0.75;;
46006;SDS011;31738;50.188;8.524;2022-09-27T08:31:31;2.83;;;0.70;;
46006;SDS011;31738;50.188;8.524;2022-09-27T08:33:57;2.33;;;0.80;;
46006;SDS011;31738;50.188;8.524;2022-09-27T08:36:25;2.70;;;0.80;;
46006;SDS011;31738;50.188;8.524;2022-09-27T08:38:50;2.90;;;0.80;;
46006;SDS011;31738;50.188;8.524;2022-09-27T08:49:31;4.55;;;0.77;;
46006;SDS011;31738;50.188;8.524;2022-09-27T08:52:02;2.50;;;0.60;;
46006;SDS011;31738;50.188;8.524;2022-09-27T08:54:32;2.22;;;0.68;;
46006;SDS011;31738;50.188;8.524;2022-09-27T08:57:02;2.28;;;1.05;;
46006;SDS011;31738;50.188;8.524;2022-09-27T08:59:36;1.67;;;0.55;;
46006;SDS011;31738;50.188;8.524;2022-09-27T09:02:10;3.35;;;0.60;;
46006;SDS011;31738;50.188;8.524;2022-09-27T09:04:45;3.33;;;0.60;;
46006;SDS011;31738;50.188;8.524;2022-09-27T09:15:40;0.75;;;0.52;;
46006;SDS011;31738;50.188;8.524;2022-09-27T09:24:35;3.60;;;0.93;;
46006;SDS011;31738;50.188;8.524;2022-09-27T09:27:36;2.05;;;0.60;;
46006;SDS011;31738;50.188;8.524;2022-09-27T09:30:16;3.60;;;0.70;;
46006;SDS011;31738;50.188;8.524;2022-09-27T09:33:00;2.55;;;0.63;;
46006;SDS011;31738;50.188;8.524;2022-09-27T09:35:39;2.77;;;0.70;;
46006;SDS011;31738;50.188;8.524;2022-09-27T09:38:11;2.53;;;1.35;;
46006;SDS011;31738;50.188;8.524;2022-09-27T09:40:47;1.25;;;0.70;;
46006;SDS011;31738;50.188;8.524;2022-09-27T09:43:24;2.08;;;0.82;;
46006;SDS011;31738;50.188;8.524;2022-09-27T09:46:06;1.90;;;0.75;;
46006;SDS011;31738;50.188;8.524;2022-09-27T09:48:44;1.55;;;0.70;;
46006;SDS011;31738;50.188;8.524;2022-09-27T09:51:16;3.53;;;0.68;;
46006;SDS011;31738;50.188;8.524;2022-09-27T09:53:52;1.42;;;0.75;;
46006;SDS011;31738;50.188;8.524;2022-09-27T09:56:27;6.13;;;0.60;;
46006;SDS011;31738;50.188;8.524;2022-09-27T09:58:58;4.38;;;0.75;;
46006;SDS011;31738;50.188;8.524;2022-09-27T10:04:28;2.28;;;0.57;;
46006;SDS011;31738;50.188;8.524;2022-09-27T10:06:56;1.23;;;0.70;;
46006;SDS011;31738;50.188;8.524;2022-09-27T10:09:26;2.17;;;0.90;;
46006;SDS011;31738;50.188;8.524;2022-09-27T10:12:11;2.72;;;0.70;;
46006;SDS011;31738;50.188;8.524;2022-09-27T10:14:38;2.90;;;0.93;;
46006;SDS011;31738;50.188;8.524;2022-09-27T10:17:09;2.15;;;0.90;;
46006;SDS011;31738;50.188;8.524;2022-09-27T10:19:40;5.28;;;1.10;;
46006;SDS011;31738;50.188;8.524;2022-09-27T10:22:12;2.50;;;0.70;;
46006;SDS011;31738;50.188;8.524;2022-09-27T10:27:39;1.65;;;0.50;;
46006;SDS011;31738;50.188;8.524;2022-09-27T10:30:29;0.45;;;0.40;;
46006;SDS011;31738;50.188;8.524;2022-09-27T10:33:06;0.95;;;0.50;;
46006;SDS011;31738;50.188;8.524;2022-09-27T10:35:46;1.23;;;0.43;;
46006;SDS011;31738;50.188;8.524;2022-09-27T10:38:24;2.90;;;0.40;;
46006;SDS011;31738;50.188;8.524;2022-09-27T10:41:20;0.50;;;0.40;;
46006;SDS011;31738;50.188;8.524;2022-09-27T10:46:43;1.55;;;0.63;;
46006;SDS011;31738;50.188;8.524;2022-09-27T10:51:59;3.38;;;0.65;;
46006;SDS011;31738;50.188;8.524;2022-09-27T10:54:28;2.25;;;0.52;;
46006;SDS011;31738;50.188;8.524;2022-09-27T10:56:57;0.47;;;0.40;;
46006;SDS011;31738;50.188;8.524;2022-09-27T10:59:45;2.22;;;0.52;;
46006;SDS011;31738;50.188;8.524;2022-09-27T11:02:28;2.67;;;0.73;;
46006;SDS011;31738;50.188;8.524;2022-09-27T11:07:46;2.67;;;0.60;;
46006;SDS011;31738;50.188;8.524;2022-09-27T11:10:26;1.98;;;0.75;;
46006;SDS011;31738;50.188;8.524;2022-09-27T11:13:06;3.00;;;0.65;;
46006;SDS011;31738;50.188;8.524;2022-09-27T11:15:40;1.77;;;0.68;;
46006;SDS011;31738;50.188;8.524;2022-09-27T11:18:20;2.20;;;0.60;;
46006;SDS011;31738;50.188;8.524;2022-09-27T11:21:15;1.25;;;0.60;;
46006;SDS011;31738;50.188;8.524;2022-09-27T11:24:09;3.33;;;0.70;;
46006;SDS011;31738;50.188;8.524;2022-09-27T11:26:45;3.40;;;0.60;;
46006;SDS011;31738;50.188;8.524;2022-09-27T11:29:49;1.85;;;0.60;;
46006;SDS011;31738;50.188;8.524;2022-09-27T11:36:11;1.80;;;0.70;;
46006;SDS011;31738;50.188;8.524;2022-09-27T11:41:20;0.80;;;0.60;;
46006;SDS011;31738;50.188;8.524;2022-09-27T11:46:33;5.03;;;0.80;;
46006;SDS011;31738;50.188;8.524;2022-09-27T12:00:00;2.50;;;1.00;;
46006;SDS011;31738;50.188;8.524;2022-09-27T12:16:39;3.50;;;0.98;;
46006;SDS011;31738;50.188;8.524;2022-09-27T12:19:10;1.30;;;0.73;;
46006;SDS011;31738;50.188;8.524;2022-09-27T12:21:55;0.90;;;0.68;;
46006;SDS011;31738;50.188;8.524;2022-09-27T12:24:25;1.27;;;0.75;;
46006;SDS011;31738;50.188;8.524;2022-09-27T12:27:19;0.55;;;0.52;;
46006;SDS011;31738;50.188;8.524;2022-09-27T12:29:56;1.02;;;0.65;;
46006;SDS011;31738;50.188;8.524;2022-09-27T12:32:24;0.88;;;0.82;;
46006;SDS011;31738;50.188;8.524;2022-09-27T12:37:52;1.97;;;0.70;;
46006;SDS011;31738;50.188;8.524;2022-09-27T12:43:10;1.38;;;0.80;;
46006;SDS011;31738;50.188;8.524;2022-09-27T12:49:08;3.20;;;0.80;;
46006;SDS011;31738;50.188;8.524;2022-09-27T12:51:39;1.40;;;0.70;;
46006;SDS011;31738;50.188;8.524;2022-09-27T12:54:22;2.65;;;0.60;;
46006;SDS011;31738;50.188;8.524;2022-09-27T13:05:49;1.05;;;0.73;;
46006;SDS011;31738;50.188;8.524;2022-09-27T13:14:24;1.02;;;0.60;;
46006;SDS011;31738;50.188;8.524;2022-09-27T13:16:52;1.55;;;0.70;;
46006;SDS011;31738;50.188;8.524;2022-09-27T13:22:37;1.10;;;0.70;;
46006;SDS011;31738;50.188;8.524;2022-09-27T13:30:57;1.25;;;0.80;;
46006;SDS011;31738;50.188;8.524;2022-09-27T13:36:07;0.85;;;0.40;;
46006;SDS011;31738;50.188;8.524;2022-09-27T13:42:03;1.77;;;0.55;;
46006;SDS011;31738;50.188;8.524;2022-09-27T13:47:28;7.78;;;1.08;;
46006;SDS011;31738;50.188;8.524;2022-09-27T13:50:02;2.20;;;0.65;;
46006;SDS011;31738;50.188;8.524;2022-09-27T13:52:57;1.60;;;0.57;;
46006;SDS011;31738;50.188;8.524;2022-09-27T13:55:41;1.85;;;0.70;;
46006;SDS011;31738;50.188;8.524;2022-09-27T13:58:51;2.50;;;0.73;;
46006;SDS011;31738;50.188;8.524;2022-09-27T14:01:53;3.90;;;0.75;;
46006;SDS011;31738;50.188;8.524;2022-09-27T14:04:29;3.42;;;0.85;;
46006;SDS011;31738;50.188;8.524;2022-09-27T14:07:01;1.75;;;0.70;;
46006;SDS011;31738;50.188;8.524;2022-09-27T14:09:29;2.42;;;0.80;;
46006;SDS011;31738;50.188;8.524;2022-09-27T14:12:18;1.88;;;0.75;;
46006;SDS011;31738;50.188;8.524;2022-09-27T14:14:49;1.02;;;0.60;;
46006;SDS011;31738;50.188;8.524;2022-09-27T14:17:17;3.17;;;1.13;;
46006;SDS011;31738;50.188;8.524;2022-09-27T14:19:43;1.52;;;0.60;;
46006;SDS011;31738;50.188;8.524;2022-09-27T14:22:11;2.30;;;1.05;;
46006;SDS011;31738;50.188;8.524;2022-09-27T14:25:02;1.08;;;0.80;;
46006;SDS011;31738;50.188;8.524;2022-09-27T14:27:40;1.75;;;0.70;;
46006;SDS011;31738;50.188;8.524;2022-09-27T14:30:16;2.03;;;0.80;;
46006;SDS011;31738;50.188;8.524;2022-09-27T14:32:51;2.80;;;1.10;;
46006;SDS011;31738;50.188;8.524;2022-09-27T14:35:47;2.33;;;0.80;;
46006;SDS011;31738;50.188;8.524;2022-09-27T14:38:33;1.63;;;0.70;;
46006;SDS011;31738;50.188;8.524;2022-09-27T14:41:03;1.15;;;0.95;;
46006;SDS011;31738;50.188;8.524;2022-09-27T14:43:31;2.70;;;1.02;;
46006;SDS011;31738;50.188;8.524;2022-09-27T14:46:00;1.65;;;0.80;;
46006;SDS011;31738;50.188;8.524;2022-09-27T14:48:30;1.65;;;0.98;;
46006;SDS011;31738;50.188;8.524;2022-09-27T14:51:01;3.70;;;0.93;;
46006;SDS011;31738;50.188;8.524;2022-09-27T14:53:47;1.42;;;0.90;;
46006;SDS011;31738;50.188;8.524;2022-09-27T14:56:18;1.88;;;0.90;;
46006;SDS011;31738;50.188;8.524;2022-09-27T14:58:47;3.63;;;1.10;;
46006;SDS011;31738;50.188;8.524;2022-09-27T15:01:17;1.02;;;0.80;;
46006;SDS011;31738;50.188;8.524;2022-09-27T15:03:45;1.80;;;0.70;;
46006;SDS011;31738;50.188;8.524;2022-09-27T15:06:13;1.55;;;0.88;;
46006;SDS011;31738;50.188;8.524;2022-09-27T15:08:40;2.15;;;1.00;;
46006;SDS011;31738;50.188;8.524;2022-09-27T15:11:08;1.38;;;0.88;;
46006;SDS011;31738;50.188;8.524;2022-09-27T15:13:35;1.08;;;0.90;;
46006;SDS011;31738;50.188;8.524;2022-09-27T15:16:06;5.22;;;0.75;;
46006;SDS011;31738;50.188;8.524;2022-09-27T15:18:44;1.63;;;0.70;;
46006;SDS011;31738;50.188;8.524;2022-09-27T15:21:12;1.83;;;0.80;;
46006;SDS011;31738;50.188;8.524;2022-09-27T15:23:51;3.20;;;0.98;;
46006;SDS011;31738;50.188;8.524;2022-09-27T15:28:48;2.45;;;0.98;;
46006;SDS011;31738;50.188;8.524;2022-09-27T15:31:16;3.88;;;1.30;;
46006;SDS011;31738;50.188;8.524;2022-09-27T15:33:44;1.50;;;0.95;;
46006;SDS011;31738;50.188;8.524;2022-09-27T15:36:18;4.15;;;1.02;;
46006;SDS011;31738;50.188;8.524;2022-09-27T15:39:29;2.58;;;1.10;;
46006;SDS011;31738;50.188;8.524;2022-09-27T15:42:07;0.98;;;0.90;;
46006;SDS011;31738;50.188;8.524;2022-09-27T15:44:36;2.58;;;1.10;;
46006;SDS011;31738;50.188;8.524;2022-09-27T15:47:02;1.52;;;1.10;;
46006;SDS011;31738;50.188;8.524;2022-09-27T15:49:28;2.80;;;0.80;;
46006;SDS011;31738;50.188;8.524;2022-09-27T15:51:55;3.88;;;0.90;;
46006;SDS011;31738;50.188;8.524;2022-09-27T15:54:23;1.88;;;1.00;;
46006;SDS011;31738;50.188;8.524;2022-09-27T15:56:51;2.05;;;1.00;;
46006;SDS011;31738;50.188;8.524;2022-09-27T15:59:24;1.55;;;1.10;;
46006;SDS011;31738;50.188;8.524;2022-09-27T16:01:53;2.42;;;1.08;;
46006;SDS011;31738;50.188;8.524;2022-09-27T16:04:21;1.15;;;0.90;;
46006;SDS011;31738;50.188;8.524;2022-09-27T16:06:46;3.00;;;1.08;;
46006;SDS011;31738;50.188;8.524;2022-09-27T16:09:13;2.55;;;1.13;;
46006;SDS011;31738;50.188;8.524;2022-09-27T16:11:43;6.63;;;1.45;;
46006;SDS011;31738;50.188;8.524;2022-09-27T16:14:10;4.93;;;1.20;;
46006;SDS011;31738;50.188;8.524;2022-09-27T16:16:41;1.48;;;0.80;;
46006;SDS011;31738;50.188;8.524;2022-09-27T16:19:08;1.60;;;1.10;;
46006;SDS011;31738;50.188;8.524;2022-09-27T16:21:33;3.00;;;1.30;;
46006;SDS011;31738;50.188;8.524;2022-09-27T16:23:59;1.38;;;1.00;;
46006;SDS011;31738;50.188;8.524;2022-09-27T16:26:24;2.47;;;1.10;;
46006;SDS011;31738;50.188;8.524;2022-09-27T16:28:50;1.83;;;1.00;;
46006;SDS011;31738;50.188;8.524;2022-09-27T16:31:15;1.60;;;0.85;;
46006;SDS011;31738;50.188;8.524;2022-09-27T16:33:42;2.33;;;0.90;;
46006;SDS011;31738;50.188;8.524;2022-09-27T16:36:07;1.27;;;0.75;;
46006;SDS011;31738;50.188;8.524;2022-09-27T16:38:39;0.68;;;0.60;;
46006;SDS011;31738;50.188;8.524;2022-09-27T16:41:06;1.73;;;0.57;;
46006;SDS011;31738;50.188;8.524;2022-09-27T16:43:31;1.15;;;0.40;;
46006;SDS011;31738;50.188;8.524;2022-09-27T16:46:07;1.30;;;0.60;;
46006;SDS011;31738;50.188;8.524;2022-09-27T16:48:36;1.27;;;0.60;;
46006;SDS011;31738;50.188;8.524;2022-09-27T16:51:06;1.15;;;0.80;;
46006;SDS011;31738;50.188;8.524;2022-09-27T16:53:53;2.65;;;0.90;;
46006;SDS011;31738;50.188;8.524;2022-09-27T16:56:19;1.67;;;1.05;;
46006;SDS011;31738;50.188;8.524;2022-09-27T16:58:45;1.65;;;0.85;;
46006;SDS011;31738;50.188;8.524;2022-09-27T17:01:11;1.33;;;1.00;;
46006;SDS011;31738;50.188;8.524;2022-09-27T17:03:36;1.77;;;1.10;;
46006;SDS011;31738;50.188;8.524;2022-09-27T17:06:02;2.50;;;1.08;;
46006;SDS011;31738;50.188;8.524;2022-09-27T17:08:28;1.90;;;0.73;;
46006;SDS011;31738;50.188;8.524;2022-09-27T17:10:54;4.13;;;0.90;;
46006;SDS011;31738;50.188;8.524;2022-09-27T17:13:21;1.80;;;0.85;;
46006;SDS011;31738;50.188;8.524;2022-09-27T17:15:47;3.30;;;0.80;;
46006;SDS011;31738;50.188;8.524;2022-09-27T17:18:13;1.42;;;0.90;;
46006;SDS011;31738;50.188;8.524;2022-09-27T17:20:39;2.50;;;1.10;;
46006;SDS011;31738;50.188;8.524;2022-09-27T17:23:05;1.33;;;0.95;;
46006;SDS011;31738;50.188;8.524;2022-09-27T17:25:30;1.63;;;0.90;;
46006;SDS011;31738;50.188;8.524;2022-09-27T17:27:56;1.48;;;0.95;;
46006;SDS011;31738;50.188;8.524;2022-09-27T17:30:22;1.85;;;1.20;;
46006;SDS011;31738;50.188;8.524;2022-09-27T17:32:48;2.63;;;1.30;;
46006;SDS011;31738;50.188;8.524;2022-09-27T17:35:13;4.63;;;2.03;;
46006;SDS011;31738;50.188;8.524;2022-09-27T17:37:40;3.35;;;1.90;;
46006;SDS011;31738;50.188;8.524;2022-09-27T17:40:06;4.13;;;2.20;;
46006;SDS011;31738;50.188;8.524;2022-09-27T17:42:31;5.75;;;2.83;;
46006;SDS011;31738;50.188;8.524;2022-09-27T17:44:58;4.25;;;1.90;;
46006;SDS011;31738;50.188;8.524;2022-09-27T17:47:23;5.95;;;1.80;;
46006;SDS011;31738;50.188;8.524;2022-09-27T17:50:08;2.22;;;1.60;;
46006;SDS011;31738;50.188;8.524;2022-09-27T17:52:53;2.92;;;1.20;;
46006;SDS011;31738;50.188;8.524;2022-09-27T17:55:20;5.03;;;1.30;;
46006;SDS011;31738;50.188;8.524;2022-09-27T17:57:46;1.92;;;1.30;;
46006;SDS011;31738;50.188;8.524;2022-09-27T18:00:16;2.70;;;1.50;;
46006;SDS011;31738;50.188;8.524;2022-09-27T18:02:42;2.88;;;1.85;;
46006;SDS011;31738;50.188;8.524;2022-09-27T18:05:09;3.30;;;1.58;;
46006;SDS011;31738;50.188;8.524;2022-09-27T18:07:35;3.22;;;1.45;;
46006;SDS011;31738;50.188;8.524;2022-09-27T18:10:01;3.60;;;1.70;;